createdAt,value
2023-03-17T00:01:44.630Z,0.50
2023-03-17T00:04:12.592Z,0.47
2023-03-17T00:06:40.343Z,0.51
2023-03-17T00:09:14.994Z,0.52
2023-03-17T00:11:42.624Z,0.53
2023-03-17T00:14:09.700Z,0.53
2023-03-17T00:16:44.072Z,0.46
2023-03-17T00:19:32.266Z,0.40
2023-03-17T00:22:00.163Z,0.40
2023-03-17T00:24:27.675Z,0.42
2023-03-17T00:26:54.598Z,0.43
2023-03-17T00:29:21.602Z,0.46
2023-03-17T00:31:50.938Z,0.51
2023-03-17T00:34:18.634Z,0.52
2023-03-17T00:36:48.333Z,0.54
2023-03-17T00:41:42.657Z,0.64
2023-03-17T00:44:09.874Z,0.61
2023-03-17T00:46:38.386Z,0.56
2023-03-17T00:51:44.835Z,0.66
2023-03-17T00:54:12.203Z,0.66
2023-03-17T00:56:39.318Z,0.60
2023-03-17T00:59:14.499Z,0.60
2023-03-17T01:01:43.245Z,0.53
2023-03-17T01:04:10.883Z,0.52
2023-03-17T01:06:38.089Z,0.52
2023-03-17T01:09:05.165Z,0.47
2023-03-17T01:11:32.580Z,0.47
2023-03-17T01:13:59.634Z,0.44
2023-03-17T01:16:29.157Z,0.43
2023-03-17T01:18:56.285Z,0.42
2023-03-17T01:21:23.819Z,0.40
2023-03-17T01:23:50.694Z,0.38
2023-03-17T01:26:18.109Z,0.41
2023-03-17T01:28:45.362Z,0.43
2023-03-17T01:31:12.720Z,0.39
2023-03-17T01:33:39.696Z,0.38
2023-03-17T01:36:07.702Z,0.36
2023-03-17T01:38:35.962Z,0.43
2023-03-17T01:41:03.441Z,0.44
2023-03-17T01:43:30.891Z,0.44
2023-03-17T01:46:26.264Z,0.44
2023-03-17T01:49:17.973Z,0.38
2023-03-17T01:52:02.710Z,0.34
2023-03-17T01:54:52.773Z,0.33
2023-03-17T01:57:29.745Z,0.33
2023-03-17T02:00:01.027Z,0.26
2023-03-17T02:02:33.351Z,0.21
2023-03-17T02:05:00.408Z,0.24
2023-03-17T02:07:28.063Z,0.24
2023-03-17T02:09:55.482Z,0.24
2023-03-17T02:12:23.485Z,0.24
2023-03-17T02:14:51.793Z,0.21
2023-03-17T02:17:39.304Z,0.20
2023-03-17T02:20:18.525Z,0.23
2023-03-17T02:22:49.740Z,0.20
2023-03-17T02:25:17.439Z,0.16
2023-03-17T02:27:46.416Z,0.16
2023-03-17T02:30:17.032Z,0.16
2023-03-17T02:32:44.168Z,0.10
2023-03-17T02:35:11.173Z,0.12
2023-03-17T02:37:38.406Z,0.10
2023-03-17T02:40:06.602Z,0.09
2023-03-17T02:42:34.211Z,0.09
2023-03-17T02:45:01.286Z,0.08
2023-03-17T02:47:29.792Z,0.07
2023-03-17T02:49:56.748Z,0.06
2023-03-17T02:52:23.755Z,0.09
2023-03-17T02:54:50.767Z,0.08
2023-03-17T02:57:17.777Z,0.04
2023-03-17T02:59:44.892Z,0.08
2023-03-17T03:02:11.857Z,0.08
2023-03-17T03:04:38.929Z,0.08
2023-03-17T03:07:06.119Z,0.13
2023-03-17T03:09:33.192Z,0.16
2023-03-17T03:12:00.589Z,0.18
2023-03-17T03:14:27.753Z,0.16
2023-03-17T03:16:54.956Z,0.20
2023-03-17T03:19:22.799Z,0.20
2023-03-17T03:21:49.791Z,0.21
2023-03-17T03:24:17.008Z,0.25
2023-03-17T03:26:43.985Z,0.27
2023-03-17T03:29:10.919Z,0.32
2023-03-17T03:31:37.950Z,0.33
2023-03-17T03:34:04.876Z,0.36
2023-03-17T03:36:32.399Z,0.36
2023-03-17T03:39:00.950Z,0.37
2023-03-17T03:41:27.957Z,0.36
2023-03-17T03:43:54.996Z,0.36
2023-03-17T03:46:21.996Z,0.42
2023-03-17T03:48:48.996Z,0.37
2023-03-17T03:51:16.303Z,0.34
2023-03-17T03:53:43.216Z,0.31
2023-03-17T03:56:10.199Z,0.32
2023-03-17T03:58:37.259Z,0.32
2023-03-17T04:01:08.007Z,0.32
2023-03-17T04:03:35.468Z,0.32
2023-03-17T04:06:03.518Z,0.37
2023-03-17T04:08:31.839Z,0.40
2023-03-17T04:10:58.837Z,0.44
2023-03-17T04:13:25.807Z,0.50
2023-03-17T04:15:52.810Z,0.46
2023-03-17T04:18:19.815Z,0.47
2023-03-17T04:20:46.899Z,0.42
2023-03-17T04:23:13.886Z,0.40
2023-03-17T04:25:40.888Z,0.44
2023-03-17T04:28:09.114Z,0.46
2023-03-17T04:30:36.053Z,0.49
2023-03-17T04:33:03.070Z,0.52
2023-03-17T04:35:30.068Z,0.54
2023-03-17T04:37:57.014Z,0.58
2023-03-17T04:40:24.048Z,0.54
2023-03-17T04:42:51.227Z,0.57
2023-03-17T04:45:18.194Z,0.56
2023-03-17T04:47:47.944Z,0.56
2023-03-17T04:50:14.987Z,0.55
2023-03-17T04:52:42.266Z,0.54
2023-03-17T04:55:09.924Z,0.55
2023-03-17T04:57:36.990Z,0.60
2023-03-17T05:00:05.426Z,0.58
2023-03-17T05:02:32.528Z,0.66
2023-03-17T05:04:59.490Z,0.69
2023-03-17T05:07:26.491Z,0.68
2023-03-17T05:09:53.335Z,0.62
2023-03-17T05:12:20.270Z,0.58
2023-03-17T05:14:47.300Z,0.61
2023-03-17T05:17:14.502Z,0.61
2023-03-17T05:19:41.566Z,0.64
2023-03-17T05:22:08.542Z,0.66
2023-03-17T05:24:35.546Z,0.66
2023-03-17T05:27:02.567Z,0.69
2023-03-17T05:29:29.524Z,0.69
2023-03-17T05:31:56.480Z,0.76
2023-03-17T05:34:23.411Z,0.80
2023-03-17T05:36:50.589Z,0.77
2023-03-17T05:39:17.613Z,0.80
2023-03-17T05:41:44.515Z,0.80
2023-03-17T05:44:11.512Z,0.75
2023-03-17T05:46:40.217Z,0.81
2023-03-17T05:49:07.663Z,0.89
2023-03-17T05:51:36.828Z,0.92
2023-03-17T05:54:04.147Z,0.98
2023-03-17T05:56:33.868Z,1.00
2023-03-17T05:59:01.867Z,1.01
2023-03-17T06:01:29.268Z,0.99
2023-03-17T06:03:56.515Z,0.98
2023-03-17T06:06:24.730Z,0.99
2023-03-17T06:08:51.818Z,1.04
2023-03-17T06:11:20.792Z,1.02
2023-03-17T06:13:47.806Z,1.02
2023-03-17T06:16:14.839Z,1.05
2023-03-17T06:18:41.821Z,1.03
2023-03-17T06:21:08.780Z,1.01
2023-03-17T06:23:36.798Z,0.98
2023-03-17T06:26:03.895Z,1.02
2023-03-17T06:28:31.244Z,1.05
2023-03-17T06:30:58.432Z,1.05
2023-03-17T06:33:26.083Z,1.07
2023-03-17T06:35:53.369Z,1.07
2023-03-17T06:38:20.869Z,1.12
2023-03-17T06:40:47.986Z,1.12
2023-03-17T06:43:14.951Z,1.17
2023-03-17T06:45:42.259Z,1.20
2023-03-17T06:48:09.353Z,1.28
2023-03-17T06:50:36.376Z,1.27
2023-03-17T06:53:03.346Z,1.26
2023-03-17T06:55:30.672Z,1.35
2023-03-17T06:57:59.033Z,1.40
2023-03-17T07:00:26.192Z,1.40
2023-03-17T07:02:53.180Z,1.43
2023-03-17T07:05:20.209Z,1.51
2023-03-17T07:07:47.296Z,1.55
2023-03-17T07:10:15.971Z,1.64
2023-03-17T07:12:43.765Z,1.71
2023-03-17T07:15:12.507Z,1.68
2023-03-17T07:17:39.532Z,1.63
2023-03-17T07:20:06.891Z,1.65
2023-03-17T07:22:33.989Z,1.70
2023-03-17T07:25:01.001Z,1.71
2023-03-17T07:27:28.179Z,1.69
2023-03-17T07:29:55.181Z,1.63
2023-03-17T07:32:22.263Z,1.68
2023-03-17T07:34:49.442Z,1.69
2023-03-17T07:37:17.585Z,1.69
2023-03-17T07:39:44.838Z,1.72
2023-03-17T07:42:12.421Z,1.71
2023-03-17T07:44:41.596Z,1.80
2023-03-17T07:47:09.294Z,1.82
2023-03-17T07:49:41.812Z,1.86
2023-03-17T07:52:10.041Z,1.84
2023-03-17T07:54:37.669Z,1.79
2023-03-17T07:57:05.379Z,1.81
2023-03-17T07:59:32.892Z,1.84
2023-03-17T08:02:01.474Z,1.82
2023-03-17T08:04:28.695Z,1.84
2023-03-17T08:06:55.750Z,1.83
2023-03-17T08:09:23.185Z,1.86
2023-03-17T08:11:51.676Z,1.92
2023-03-17T08:14:18.702Z,1.90
2023-03-17T08:16:45.879Z,1.89
2023-03-17T08:19:12.985Z,1.85
2023-03-17T08:21:40.105Z,1.87
2023-03-17T08:24:07.354Z,1.94
2023-03-17T08:26:34.435Z,1.99
2023-03-17T08:29:01.557Z,2.08
2023-03-17T08:31:28.778Z,2.13
2023-03-17T08:33:57.273Z,2.23
2023-03-17T08:36:24.552Z,2.25
2023-03-17T08:38:51.866Z,2.29
2023-03-17T08:41:21.883Z,2.40
2023-03-17T08:43:48.911Z,2.39
2023-03-17T08:46:29.790Z,2.39
2023-03-17T08:48:57.290Z,2.44
2023-03-17T08:51:25.588Z,2.57
2023-03-17T08:53:53.336Z,2.72
2023-03-17T08:56:20.487Z,2.79
2023-03-17T08:58:49.120Z,2.73
2023-03-17T09:01:16.392Z,2.72
2023-03-17T09:03:43.550Z,2.82
2023-03-17T09:06:12.409Z,2.85
2023-03-17T09:08:41.274Z,2.96
2023-03-17T09:11:08.641Z,3.00
2023-03-17T09:13:37.306Z,2.92
2023-03-17T09:16:04.458Z,3.04
2023-03-17T09:18:33.098Z,3.18
2023-03-17T09:21:00.346Z,3.29
2023-03-17T09:23:27.465Z,3.35
2023-03-17T09:25:54.534Z,3.47
2023-03-17T09:28:21.533Z,3.54
2023-03-17T09:30:48.632Z,3.60
2023-03-17T09:33:15.831Z,3.69
2023-03-17T09:35:42.710Z,3.74
2023-03-17T09:38:09.773Z,3.78
2023-03-17T09:40:44.744Z,3.78
2023-03-17T09:43:18.676Z,3.86
2023-03-17T09:45:45.676Z,3.90
2023-03-17T09:48:49.564Z,3.91
2023-03-17T09:51:19.764Z,3.85
2023-03-17T09:53:55.188Z,3.90
2023-03-17T09:56:22.332Z,3.91
2023-03-17T09:58:59.199Z,4.09
2023-03-17T10:01:26.573Z,4.13
2023-03-17T10:03:53.677Z,4.15
2023-03-17T10:06:29.504Z,4.17
2023-03-17T10:09:22.479Z,4.06
2023-03-17T10:12:02.540Z,4.05
2023-03-17T10:14:51.297Z,4.15
2023-03-17T10:17:23.751Z,4.24
2023-03-17T10:20:17.455Z,4.30
2023-03-17T10:22:58.063Z,4.40
2023-03-17T10:25:30.216Z,4.38
2023-03-17T10:27:59.997Z,4.31
2023-03-17T10:30:27.521Z,4.29
2023-03-17T10:32:55.329Z,4.33
2023-03-17T10:35:23.119Z,4.36
2023-03-17T10:37:58.909Z,4.41
2023-03-17T10:40:31.650Z,4.35
2023-03-17T10:43:07.728Z,4.30
2023-03-17T10:45:38.381Z,4.30
2023-03-17T10:48:08.545Z,4.25
2023-03-17T10:50:41.194Z,4.23
2023-03-17T10:53:10.951Z,4.24
2023-03-17T10:55:37.696Z,4.18
2023-03-17T10:58:18.701Z,4.12
2023-03-17T11:00:58.274Z,4.12
2023-03-17T11:03:30.004Z,4.04
2023-03-17T11:06:11.613Z,3.96
2023-03-17T11:08:51.720Z,3.94
2023-03-17T11:11:29.934Z,3.98
2023-03-17T11:14:13.494Z,4.02
2023-03-17T11:16:57.572Z,4.07
2023-03-17T11:19:30.813Z,4.13
2023-03-17T11:22:11.707Z,4.09
2023-03-17T11:24:53.167Z,4.22
2023-03-17T11:27:30.256Z,4.36
2023-03-17T11:30:16.751Z,4.51
2023-03-17T11:33:25.428Z,4.55
2023-03-17T11:36:03.572Z,4.52
2023-03-17T11:38:31.809Z,4.53
2023-03-17T11:41:09.144Z,4.57
2023-03-17T11:43:45.497Z,4.58
2023-03-17T11:46:15.318Z,4.49
2023-03-17T11:48:55.189Z,4.45
2023-03-17T11:51:33.854Z,4.47
2023-03-17T11:54:06.753Z,4.51
2023-03-17T11:56:50.253Z,4.64
2023-03-17T11:59:37.588Z,4.71
2023-03-17T12:02:23.241Z,4.79
2023-03-17T12:05:06.314Z,4.71
2023-03-17T12:07:37.929Z,4.63
2023-03-17T12:10:08.156Z,4.64
2023-03-17T12:12:39.208Z,4.75
2023-03-17T12:15:10.762Z,4.79
2023-03-17T12:17:42.240Z,4.75
2023-03-17T12:20:19.659Z,4.68
2023-03-17T12:23:01.469Z,4.62
2023-03-17T12:25:50.577Z,4.56
2023-03-17T12:28:23.072Z,4.43
2023-03-17T12:31:00.122Z,4.38
2023-03-17T12:33:49.329Z,4.39
2023-03-17T12:36:17.085Z,4.30
2023-03-17T12:38:56.917Z,4.28
2023-03-17T12:41:26.666Z,4.25
2023-03-17T12:44:05.498Z,4.39
2023-03-17T12:46:51.349Z,4.43
2023-03-17T12:49:39.457Z,4.50
2023-03-17T12:52:27.921Z,4.54
2023-03-17T12:54:54.914Z,4.54
2023-03-17T12:57:24.262Z,4.45
2023-03-17T13:00:01.057Z,4.41
2023-03-17T13:02:27.882Z,4.48
2023-03-17T13:05:00.966Z,4.57
2023-03-17T13:07:46.639Z,4.44
2023-03-17T13:10:40.034Z,4.38
2023-03-17T13:13:08.983Z,4.29
2023-03-17T13:15:36.224Z,4.17
2023-03-17T13:18:18.498Z,4.19
2023-03-17T13:20:57.589Z,4.23
2023-03-17T13:23:48.651Z,4.20
2023-03-17T13:26:20.012Z,4.19
2023-03-17T13:28:48.795Z,4.21
2023-03-17T13:31:31.975Z,4.21
2023-03-17T13:34:16.375Z,4.11
2023-03-17T13:36:55.601Z,4.01
2023-03-17T13:40:00.800Z,3.98
2023-03-17T13:42:49.407Z,4.03
2023-03-17T13:45:38.473Z,3.96
2023-03-17T13:48:30.928Z,3.80
2023-03-17T13:51:08.285Z,3.76
2023-03-17T13:53:41.320Z,3.73
2023-03-17T13:56:16.839Z,3.58
2023-03-17T13:59:14.312Z,3.49
2023-03-17T14:02:17.742Z,3.39
2023-03-17T14:04:55.263Z,3.33
2023-03-17T14:07:24.223Z,3.28
2023-03-17T14:09:53.383Z,3.28
2023-03-17T14:12:29.209Z,3.20
2023-03-17T14:15:08.247Z,3.16
2023-03-17T14:17:41.868Z,3.08
2023-03-17T14:20:18.602Z,3.06
2023-03-17T14:22:47.182Z,2.93
2023-03-17T14:25:31.075Z,2.84
2023-03-17T14:27:58.221Z,2.76
2023-03-17T14:30:29.720Z,2.74
2023-03-17T14:33:07.279Z,2.64
2023-03-17T14:35:37.505Z,2.55
2023-03-17T14:38:06.661Z,2.40
2023-03-17T14:40:36.920Z,2.33
2023-03-17T14:43:04.116Z,2.23
2023-03-17T14:45:45.163Z,2.13
2023-03-17T14:48:16.526Z,2.03
2023-03-17T14:50:51.574Z,1.95
2023-03-17T14:53:18.977Z,1.91
2023-03-17T14:55:45.989Z,1.85
2023-03-17T14:58:42.787Z,1.76
2023-03-17T15:01:15.713Z,1.75
2023-03-17T15:03:59.149Z,1.68
2023-03-17T15:06:34.461Z,1.62
2023-03-17T15:09:04.772Z,1.59
2023-03-17T15:11:42.085Z,1.47
2023-03-17T15:14:16.119Z,1.46
2023-03-17T15:16:49.547Z,1.38
2023-03-17T15:19:28.935Z,1.39
2023-03-17T15:22:00.546Z,1.24
2023-03-17T15:24:39.530Z,1.14
2023-03-17T15:27:16.937Z,1.13
2023-03-17T15:29:44.692Z,1.17
2023-03-17T15:32:20.238Z,1.17
2023-03-17T15:34:48.290Z,1.13
2023-03-17T15:37:23.257Z,1.03
2023-03-17T15:39:50.326Z,1.05
2023-03-17T15:42:20.163Z,0.99
2023-03-17T15:44:47.181Z,0.92
2023-03-17T15:47:16.717Z,0.92
2023-03-17T15:49:44.684Z,0.87
2023-03-17T15:52:24.943Z,0.82
2023-03-17T15:54:53.142Z,0.76
2023-03-17T15:57:20.497Z,0.73
2023-03-17T15:59:47.500Z,0.71
2023-03-17T16:02:25.494Z,0.70
2023-03-17T16:04:52.709Z,0.54
2023-03-17T16:07:19.732Z,0.43
2023-03-17T16:09:46.921Z,0.38
2023-03-17T16:12:13.972Z,0.37
2023-03-17T16:14:41.453Z,0.25
2023-03-17T16:17:30.107Z,0.14
2023-03-17T16:19:57.153Z,0.16
2023-03-17T16:22:34.408Z,0.19
2023-03-17T16:25:01.660Z,0.20
2023-03-17T16:27:29.487Z,0.17
2023-03-17T16:29:56.461Z,0.08
2023-03-17T16:32:23.488Z,0.04
2023-03-17T16:34:50.681Z,0.05
2023-03-17T16:37:17.701Z,0.05
2023-03-17T16:39:45.145Z,0.01
2023-03-17T16:42:24.451Z,-0.07
2023-03-17T16:44:51.506Z,-0.23
2023-03-17T16:47:18.511Z,-0.34
2023-03-17T16:49:45.461Z,-0.36
2023-03-17T16:52:12.640Z,-0.33
2023-03-17T16:54:39.762Z,-0.25
2023-03-17T16:57:08.079Z,-0.21
2023-03-17T16:59:35.252Z,-0.20
2023-03-17T17:02:02.451Z,-0.16
2023-03-17T17:04:31.045Z,-0.19
2023-03-17T17:06:58.067Z,-0.25
2023-03-17T17:09:25.047Z,-0.31
2023-03-17T17:11:52.012Z,-0.39
2023-03-17T17:14:19.069Z,-0.36
2023-03-17T17:16:46.910Z,-0.27
2023-03-17T17:19:17.168Z,-0.21
2023-03-17T17:21:44.390Z,-0.18
2023-03-17T17:24:12.732Z,-0.20
2023-03-17T17:26:39.888Z,-0.25
2023-03-17T17:29:06.887Z,-0.24
2023-03-17T17:31:33.924Z,-0.22
2023-03-17T17:34:00.924Z,-0.19
2023-03-17T17:36:27.969Z,-0.13
2023-03-17T17:38:55.250Z,-0.12
2023-03-17T17:41:22.152Z,-0.15
2023-03-17T17:43:50.035Z,-0.21
2023-03-17T17:46:22.415Z,-0.24
2023-03-17T17:51:40.821Z,-0.47
2023-03-17T17:54:07.885Z,-0.46
2023-03-17T17:56:38.511Z,-0.45
2023-03-17T17:59:05.690Z,-0.58
2023-03-17T18:01:32.712Z,-0.60
2023-03-17T18:04:00.623Z,-0.69
2023-03-17T18:06:27.617Z,-0.75
2023-03-17T18:08:55.357Z,-0.85
2023-03-17T18:11:22.396Z,-0.85
2023-03-17T18:13:49.309Z,-0.87
2023-03-17T18:16:16.921Z,-0.86
2023-03-17T18:18:45.994Z,-0.76
2023-03-17T18:21:13.761Z,-0.86
2023-03-17T18:23:46.925Z,-0.85
2023-03-17T18:26:15.272Z,-0.86
2023-03-17T18:28:43.079Z,-0.85
2023-03-17T18:31:12.544Z,-0.87
2023-03-17T18:33:40.649Z,-0.88
2023-03-17T18:36:08.793Z,-0.90
2023-03-17T18:38:36.114Z,-0.90
2023-03-17T18:41:03.150Z,-1.00
2023-03-17T18:43:30.468Z,-1.04
2023-03-17T18:45:57.418Z,-1.10
2023-03-17T18:48:24.373Z,-1.10
2023-03-17T18:50:51.409Z,-1.08
2023-03-17T18:53:18.474Z,-1.01
2023-03-17T18:55:45.636Z,-1.11
2023-03-17T18:58:12.910Z,-1.15
2023-03-17T19:00:39.828Z,-1.10
2023-03-17T19:03:07.104Z,-1.06
2023-03-17T19:05:38.166Z,-1.00
2023-03-17T19:08:05.255Z,-1.02
2023-03-17T19:10:32.373Z,-1.12
2023-03-17T19:12:59.989Z,-1.17
2023-03-17T19:15:27.065Z,-1.29
2023-03-17T19:17:54.134Z,-1.31
2023-03-17T19:20:21.231Z,-1.28
2023-03-17T19:22:48.173Z,-1.29
2023-03-17T19:25:16.619Z,-1.34
2023-03-17T19:27:43.701Z,-1.38
2023-03-17T19:30:11.376Z,-1.38
2023-03-17T19:32:38.587Z,-1.27
2023-03-17T19:35:05.862Z,-1.17
2023-03-17T19:37:33.098Z,-1.16
2023-03-17T19:40:00.305Z,-1.15
2023-03-17T19:42:27.285Z,-1.06
2023-03-17T19:44:54.224Z,-1.00
2023-03-17T19:47:21.407Z,-1.02
2023-03-17T19:49:48.306Z,-1.02
2023-03-17T19:52:15.475Z,-1.09
2023-03-17T19:54:44.879Z,-1.20
2023-03-17T19:57:13.375Z,-1.25
2023-03-17T19:59:40.925Z,-1.34
2023-03-17T20:02:07.975Z,-1.31
2023-03-17T20:04:35.130Z,-1.39
2023-03-17T20:07:02.147Z,-1.48
2023-03-17T20:09:30.053Z,-1.40
2023-03-17T20:11:57.050Z,-1.36
2023-03-17T20:14:24.025Z,-1.30
2023-03-17T20:16:51.989Z,-1.27
2023-03-17T20:19:19.109Z,-1.32
2023-03-17T20:21:46.072Z,-1.35
2023-03-17T20:24:14.693Z,-1.31
2023-03-17T20:26:44.692Z,-1.29
2023-03-17T20:29:14.261Z,-1.32
2023-03-17T20:31:42.079Z,-1.33
2023-03-17T20:34:10.141Z,-1.46
2023-03-17T20:36:37.492Z,-1.51
2023-03-17T20:39:04.777Z,-1.51
2023-03-17T20:41:31.774Z,-1.49
2023-03-17T20:43:58.684Z,-1.52
2023-03-17T20:46:26.030Z,-1.50
2023-03-17T20:48:58.648Z,-1.54
2023-03-17T20:51:26.275Z,-1.59
2023-03-17T20:53:53.546Z,-1.70
2023-03-17T20:56:22.630Z,-1.73
2023-03-17T20:58:50.345Z,-1.74
2023-03-17T21:01:20.794Z,-1.66
2023-03-17T21:03:48.118Z,-1.60
2023-03-17T21:06:15.069Z,-1.56
2023-03-17T21:08:42.489Z,-1.61
2023-03-17T21:11:11.400Z,-1.65
2023-03-17T21:13:38.812Z,-1.77
2023-03-17T21:16:06.051Z,-1.82
2023-03-17T21:18:33.196Z,-1.75
2023-03-17T21:21:00.164Z,-1.72
2023-03-17T21:23:27.197Z,-1.72
2023-03-17T21:25:56.042Z,-1.77
2023-03-17T21:28:23.295Z,-1.90
2023-03-17T21:30:50.328Z,-1.93
2023-03-17T21:33:17.262Z,-1.97
2023-03-17T21:35:44.208Z,-1.91
2023-03-17T21:38:11.218Z,-1.89
2023-03-17T21:40:38.275Z,-1.90
2023-03-17T21:43:05.718Z,-1.91
2023-03-17T21:45:32.946Z,-1.98
2023-03-17T21:47:59.888Z,-2.01
2023-03-17T21:50:27.258Z,-2.03
2023-03-17T21:52:54.264Z,-2.08
2023-03-17T21:55:21.271Z,-2.06
2023-03-17T21:57:48.281Z,-2.13
2023-03-17T22:00:15.628Z,-2.13
2023-03-17T22:02:42.906Z,-2.15
2023-03-17T22:05:10.525Z,-2.23
2023-03-17T22:07:38.636Z,-2.29
2023-03-17T22:10:08.681Z,-2.44
2023-03-17T22:12:35.947Z,-2.50
2023-03-17T22:15:04.239Z,-2.51
2023-03-17T22:17:31.666Z,-2.57
2023-03-17T22:19:58.680Z,-2.77
2023-03-17T22:22:25.747Z,-2.91
2023-03-17T22:24:52.860Z,-2.98
2023-03-17T22:27:19.819Z,-3.07
2023-03-17T22:29:47.554Z,-3.20
2023-03-17T22:32:14.591Z,-3.18
2023-03-17T22:34:42.147Z,-3.20
2023-03-17T22:37:09.682Z,-3.11
2023-03-17T22:39:36.873Z,-3.08
2023-03-17T22:42:03.952Z,-3.14
2023-03-17T22:44:31.348Z,-3.21
2023-03-17T22:46:58.346Z,-3.16
2023-03-17T22:49:25.265Z,-3.23
2023-03-17T22:51:52.119Z,-3.33
2023-03-17T22:54:19.307Z,-3.24
2023-03-17T22:56:46.575Z,-3.24
2023-03-17T22:59:13.564Z,-3.21
2023-03-17T23:01:40.728Z,-3.28
2023-03-17T23:04:08.177Z,-3.27
2023-03-17T23:06:35.966Z,-3.34
2023-03-17T23:09:03.037Z,-3.40
2023-03-17T23:11:30.031Z,-3.31
2023-03-17T23:13:57.033Z,-3.34
2023-03-17T23:16:24.050Z,-3.38
2023-03-17T23:18:51.645Z,-3.36
2023-03-17T23:21:27.724Z,-3.33
2023-03-17T23:23:54.805Z,-3.35
2023-03-17T23:26:21.997Z,-3.37
2023-03-17T23:28:49.694Z,-3.51
2023-03-17T23:31:19.212Z,-3.66
2023-03-17T23:33:47.424Z,-3.78
2023-03-17T23:36:15.017Z,-3.78
2023-03-17T23:38:42.916Z,-3.75
2023-03-17T23:41:11.292Z,-3.67
2023-03-17T23:43:39.229Z,-3.65
2023-03-17T23:46:06.715Z,-3.63
2023-03-17T23:48:34.081Z,-3.73
2023-03-17T23:51:01.157Z,-3.70
2023-03-17T23:53:28.460Z,-3.66
2023-03-17T23:55:55.537Z,-3.57
2023-03-17T23:58:22.931Z,-3.52
